Time;durP1;ratioP1;P1;durP2;ratioP2;P2;SDS_P1;SDS_P2;PMS_P1;PMS_P2;Temp;Humidity;BMP_temperature;BMP_pressure;BME280_temperature;BME280_humidity;BME280_pressure;Samples;Min_cycle;Max_cycle;Signal;HPM_P1;HPM_P2
2022/11/08 00:01:38;;;;;;;8.00;7.03;;;9.00;1.00;;;;;;4972310;28;20443;-65
2022/11/08 00:04:10;;;;;;;13.83;9.57;;;8.90;8.60;;;;;;4976343;28;20471;-63
2022/11/08 00:14:50;;;;;;;12.67;10.70;;;8.40;1.00;;;;;;4980093;28;20470;-64
2022/11/08 00:17:17;;;;;;;10.83;8.63;;;8.20;1.00;;;;;;4977812;28;20969;-63
2022/11/08 00:19:44;;;;;;;12.67;9.87;;;8.10;1.00;;;;;;4959205;28;21341;-64
2022/11/08 00:22:11;;;;;;;11.33;10.03;;;8.10;1.00;;;;;;4969525;28;20426;-64
2022/11/08 00:24:37;;;;;;;11.47;8.63;;;8.30;1.00;;;;;;4973128;28;20451;-64
2022/11/08 00:27:05;;;;;;;13.83;9.30;;;8.30;99.90;;;;;;4986030;28;20439;-64
2022/11/08 00:29:32;;;;;;;15.27;9.80;;;8.30;99.90;;;;;;4971061;28;21716;-64
2022/11/08 00:31:58;;;;;;;9.70;8.67;;;8.40;1.00;;;;;;4973728;28;20776;-63
2022/11/08 00:34:23;;;;;;;18.20;9.37;;;8.30;77.60;;;;;;4978446;28;20448;-64
2022/11/08 00:36:52;;;;;;;14.50;9.30;;;8.30;1.00;;;;;;4982202;28;20739;-64
2022/11/08 00:39:18;;;;;;;19.17;8.27;;;8.30;1.00;;;;;;4983664;28;20291;-64
2022/11/08 00:41:44;;;;;;;10.97;9.20;;;8.40;1.00;;;;;;4956319;28;20510;-64
2022/11/08 00:44:10;;;;;;;11.63;10.43;;;8.30;99.90;;;;;;4968079;28;20513;-64
2022/11/08 00:46:36;;;;;;;11.93;9.80;;;8.20;50.60;;;;;;4972027;28;20279;-64
2022/11/08 00:49:02;;;;;;;15.90;10.37;;;8.20;99.20;;;;;;4982701;28;20917;-64
2022/11/08 00:51:28;;;;;;;14.37;11.43;;;8.20;1.00;;;;;;4967739;28;20437;-64
2022/11/08 00:53:54;;;;;;;15.37;10.30;;;8.20;1.00;;;;;;4965186;28;21486;-64
2022/11/08 00:56:19;;;;;;;19.20;9.93;;;8.20;1.00;;;;;;4971437;28;20710;-64
2022/11/08 00:58:45;;;;;;;13.40;9.60;;;8.20;99.90;;;;;;4980229;28;20285;-64
2022/11/08 01:01:14;;;;;;;10.33;8.97;;;8.10;99.90;;;;;;4984255;28;20205;-64
2022/11/08 01:03:40;;;;;;;11.07;8.13;;;8.10;1.00;;;;;;4962696;28;20194;-64
2022/11/08 01:06:07;;;;;;;11.23;7.60;;;8.10;1.00;;;;;;4965584;28;21029;-64
2022/11/08 01:08:33;;;;;;;19.77;7.33;;;8.20;1.00;;;;;;4974834;28;20200;-64
2022/11/08 01:11:02;;;;;;;18.40;9.03;;;8.20;1.00;;;;;;4982600;28;20800;-64
2022/11/08 01:13:29;;;;;;;10.43;6.03;;;8.20;1.00;;;;;;4968699;28;20237;-64
2022/11/08 01:15:54;;;;;;;10.80;6.23;;;8.20;1.00;;;;;;4961802;28;20461;-64
2022/11/08 01:18:20;;;;;;;10.00;5.83;;;8.20;1.00;;;;;;4969732;28;20421;-64
2022/11/08 01:20:48;;;;;;;9.77;7.50;;;8.20;1.00;;;;;;4979198;28;20262;-64
2022/11/08 01:23:14;;;;;;;7.53;5.87;;;8.10;99.90;;;;;;4970493;28;20171;-64
2022/11/08 01:25:44;;;;;;;14.20;6.63;;;8.20;1.00;;;;;;4957291;28;20450;-64
2022/11/08 01:28:11;;;;;;;8.50;5.90;;;8.10;1.00;;;;;;4969902;28;20791;-64
2022/11/08 01:30:38;;;;;;;13.70;7.20;;;8.20;99.90;;;;;;4970001;28;21007;-64
2022/11/08 01:33:05;;;;;;;31.07;7.63;;;8.20;1.00;;;;;;4978293;28;20450;-64
2022/11/08 01:35:31;;;;;;;8.17;6.10;;;8.20;99.90;;;;;;4973884;28;20482;-64
2022/11/08 01:37:58;;;;;;;10.70;6.37;;;8.10;1.00;;;;;;4960328;28;20434;-63
2022/11/08 01:40:25;;;;;;;9.40;6.13;;;8.10;99.90;;;;;;4969333;28;21013;-63
2022/11/08 01:42:52;;;;;;;11.80;6.60;;;8.00;99.90;;;;;;4972884;28;20482;-63
2022/11/08 01:45:55;;;;;;;7.27;5.53;;;8.00;99.90;;;;;;4973094;28;20933;-64
2022/11/08 01:48:21;;;;;;;11.73;5.67;;;8.20;99.90;;;;;;4963534;28;20488;-64
2022/11/08 01:50:48;;;;;;;12.60;6.80;;;8.10;99.90;;;;;;4964043;28;21272;-64
2022/11/08 01:53:13;;;;;;;11.17;6.83;;;8.00;99.90;;;;;;4974570;28;20431;-64
2022/11/08 01:55:39;;;;;;;7.33;6.23;;;8.00;1.00;;;;;;4980214;28;20847;-63
2022/11/08 01:58:10;;;;;;;6.73;6.03;;;7.80;1.00;;;;;;4972308;28;20194;-66
2022/11/08 02:00:37;;;;;;;10.10;7.27;;;7.80;1.00;;;;;;4964483;28;20451;-64
2022/11/08 02:03:05;;;;;;;7.67;6.80;;;7.60;1.00;;;;;;4966528;28;20841;-65
2022/11/08 02:05:33;;;;;;;8.07;6.00;;;7.40;34.40;;;;;;4979711;28;20436;-65
2022/11/08 02:08:17;;;;;;;8.27;7.17;;;7.50;99.90;;;;;;4982739;28;20447;-65
2022/11/08 02:10:47;;;;;;;8.23;6.40;;;7.50;1.00;;;;;;4953971;28;20475;-65
2022/11/08 02:13:18;;;;;;;12.23;6.57;;;7.40;99.90;;;;;;4970369;28;20480;-65
2022/11/08 02:15:45;;;;;;;14.50;6.73;;;7.30;99.90;;;;;;4973171;28;20474;-65
2022/11/08 02:18:11;;;;;;;6.97;6.30;;;7.40;99.90;;;;;;4976654;28;20524;-65
2022/11/08 02:20:45;;;;;;;9.60;6.60;;;7.30;99.90;;;;;;4958444;28;20461;-65
2022/11/08 02:23:27;;;;;;;9.00;6.53;;;7.20;1.00;;;;;;4962269;28;20441;-65
2022/11/08 02:25:53;;;;;;;8.37;6.80;;;7.10;99.90;;;;;;4970287;28;20440;-65
2022/11/08 02:28:19;;;;;;;8.77;6.17;;;7.10;99.90;;;;;;4980363;28;20443;-65
2022/11/08 02:30:45;;;;;;;7.57;6.23;;;7.10;1.00;;;;;;4979344;28;20336;-65
2022/11/08 02:33:19;;;;;;;7.43;6.07;;;7.10;1.00;;;;;;4963233;28;20182;-65
2022/11/08 02:35:52;;;;;;;11.80;7.30;;;7.00;1.00;;;;;;4968269;28;20253;-64
2022/11/08 02:38:18;;;;;;;6.87;5.50;;;6.90;99.90;;;;;;4978750;28;20429;-64
2022/11/08 02:40:52;;;;;;;6.67;6.00;;;6.70;1.00;;;;;;4982668;28;20854;-64
2022/11/08 02:43:18;;;;;;;8.03;5.13;;;6.70;1.00;;;;;;4964077;28;20436;-64
2022/11/08 02:45:44;;;;;;;7.47;5.93;;;6.90;1.00;;;;;;4971953;28;20799;-65
2022/11/08 02:48:10;;;;;;;6.67;5.70;;;7.00;1.00;;;;;;4972134;28;20847;-65
2022/11/08 02:50:36;;;;;;;5.90;5.30;;;7.10;1.00;;;;;;4974168;28;20480;-65
2022/11/08 02:53:02;;;;;;;9.33;5.50;;;7.20;99.90;;;;;;4978938;28;20437;-65
2022/11/08 02:55:28;;;;;;;5.87;5.23;;;7.30;99.90;;;;;;4956753;28;20693;-65
2022/11/08 02:57:55;;;;;;;10.60;5.53;;;7.30;99.90;;;;;;4973546;28;20227;-65
2022/11/08 03:00:20;;;;;;;6.97;5.30;;;7.30;19.80;;;;;;4976545;28;20473;-65
2022/11/08 03:02:50;;;;;;;5.90;5.20;;;7.10;1.00;;;;;;4981429;28;20478;-65
2022/11/08 03:05:16;;;;;;;5.73;5.23;;;7.10;99.90;;;;;;4970682;28;20709;-65
2022/11/08 03:07:43;;;;;;;6.73;5.73;;;7.20;1.00;;;;;;4960154;28;20446;-65
2022/11/08 03:10:09;;;;;;;7.30;6.40;;;7.20;1.00;;;;;;4971723;28;20453;-64
2022/11/08 03:12:36;;;;;;;6.43;5.60;;;7.00;1.00;;;;;;4980405;28;20435;-65
2022/11/08 03:15:02;;;;;;;11.73;5.47;;;6.80;99.90;;;;;;4978072;28;20774;-65
2022/11/08 03:17:28;;;;;;;7.73;5.13;;;6.80;99.90;;;;;;4969593;28;20466;-65
2022/11/08 03:19:55;;;;;;;6.57;4.80;;;6.90;99.90;;;;;;4971975;28;20496;-64
2022/11/08 03:22:20;;;;;;;6.87;5.07;;;7.00;99.90;;;;;;4977110;28;20240;-66
2022/11/08 03:24:46;;;;;;;7.70;5.23;;;6.90;99.90;;;;;;4990038;28;20400;-65
2022/11/08 03:27:14;;;;;;;33.73;8.47;;;6.70;99.90;;;;;;4979112;28;20174;-64
2022/11/08 03:29:40;;;;;;;13.53;5.87;;;6.60;1.00;;;;;;4970472;28;20198;-65
2022/11/08 03:32:05;;;;;;;12.57;5.53;;;6.40;1.00;;;;;;4960606;28;20444;-64
2022/11/08 03:34:31;;;;;;;8.40;6.27;;;6.30;1.00;;;;;;4959422;28;20418;-64
2022/11/08 03:36:57;;;;;;;12.53;8.33;;;6.40;1.00;;;;;;4951220;28;20229;-64
2022/11/08 03:39:22;;;;;;;12.17;6.27;;;6.50;99.90;;;;;;4951268;29;20190;-64
2022/11/08 03:41:48;;;;;;;5.00;4.50;;;6.60;1.00;;;;;;4949543;29;20202;-64
2022/11/08 03:44:14;;;;;;;7.93;5.80;;;6.60;1.00;;;;;;4954788;28;20170;-64
2022/11/08 03:46:39;;;;;;;6.27;5.17;;;6.60;1.00;;;;;;4953397;29;20185;-64
2022/11/08 03:49:05;;;;;;;6.20;5.37;;;6.50;1.00;;;;;;4954835;29;20182;-64
2022/11/08 03:51:31;;;;;;;10.77;6.30;;;6.60;1.00;;;;;;4954587;29;20201;-64
2022/11/08 03:53:56;;;;;;;6.43;5.80;;;6.70;1.00;;;;;;4954861;29;20638;-65
2022/11/08 03:56:22;;;;;;;9.30;7.60;;;6.80;1.00;;;;;;4954746;29;20255;-64
2022/11/08 03:58:48;;;;;;;8.33;5.93;;;6.80;99.90;;;;;;4955025;29;20190;-64
2022/11/08 04:01:13;;;;;;;8.60;5.30;;;6.70;99.90;;;;;;4962534;28;20433;-65
2022/11/08 04:03:39;;;;;;;7.20;5.67;;;6.70;99.90;;;;;;4974422;28;20228;-64
2022/11/08 04:06:05;;;;;;;7.33;6.13;;;6.80;99.90;;;;;;4973687;28;20193;-64
2022/11/08 04:08:31;;;;;;;7.00;5.80;;;6.80;52.90;;;;;;4974029;28;20181;-64
2022/11/08 04:15:13;;;;;;;7.47;5.77;;;6.70;1.00;;;;;;4972886;28;20444;-64
2022/11/08 04:16:31;;;;;;;7.63;6.67;;;6.40;1.00;;;;;;4973502;28;20476;-63
2022/11/08 04:21:45;;;;;;;17.10;6.40;;;6.40;1.00;;;;;;4972969;28;20435;-64
2022/11/08 04:24:11;;;;;;;10.13;6.37;;;6.50;99.90;;;;;;4973437;28;20455;-64
2022/11/08 04:26:37;;;;;;;10.57;6.50;;;6.50;99.90;;;;;;4973407;28;20417;-64
2022/11/08 04:29:03;;;;;;;8.97;6.03;;;6.60;99.90;;;;;;4973399;28;20177;-64
2022/11/08 04:31:29;;;;;;;7.67;6.20;;;6.60;32.90;;;;;;4972266;28;20901;-64
2022/11/08 04:33:54;;;;;;;9.00;6.60;;;6.60;1.00;;;;;;4973249;28;20224;-64
2022/11/08 04:36:20;;;;;;;8.47;6.40;;;6.40;1.00;;;;;;4972597;28;20244;-64
2022/11/08 04:38:50;;;;;;;15.27;6.60;;;6.30;1.00;;;;;;4973244;28;20170;-64
2022/11/08 04:41:19;;;;;;;16.17;8.00;;;6.40;1.00;;;;;;4972164;28;20186;-65
2022/11/08 04:43:45;;;;;;;15.10;7.90;;;6.40;1.00;;;;;;4973350;28;20409;-64
2022/11/08 04:46:13;;;;;;;7.63;6.60;;;6.50;1.00;;;;;;4971428;28;20448;-64
2022/11/08 04:48:39;;;;;;;9.70;6.70;;;6.40;1.00;;;;;;4973561;28;20436;-64
2022/11/08 04:51:09;;;;;;;11.03;6.80;;;6.20;1.00;;;;;;4972017;28;20464;-64
2022/11/08 04:53:34;;;;;;;13.10;6.90;;;6.10;99.90;;;;;;4973146;28;20417;-65
2022/11/08 04:56:03;;;;;;;10.40;6.20;;;6.20;99.90;;;;;;4972428;28;20543;-65
2022/11/08 04:58:33;;;;;;;8.90;6.73;;;6.30;99.90;;;;;;4973113;28;20201;-64
2022/11/08 05:01:01;;;;;;;8.87;6.90;;;6.20;1.00;;;;;;4965243;28;20418;-64
2022/11/08 05:03:27;;;;;;;9.00;6.20;;;6.10;99.90;;;;;;4953914;28;20429;-64
2022/11/08 05:05:53;;;;;;;7.30;6.20;;;6.20;1.00;;;;;;4953240;28;20520;-64
2022/11/08 05:08:18;;;;;;;12.00;8.10;;;6.30;94.00;;;;;;4953586;28;20512;-64
2022/11/08 05:10:44;;;;;;;8.93;6.60;;;6.30;1.00;;;;;;4952708;28;20285;-64
2022/11/08 05:13:10;;;;;;;9.80;8.30;;;6.30;54.90;;;;;;4953462;28;20174;-64
2022/11/08 05:15:35;;;;;;;10.60;6.80;;;6.30;99.90;;;;;;4953322;28;20202;-64
2022/11/08 05:18:01;;;;;;;9.60;8.20;;;6.30;99.90;;;;;;4953544;28;20166;-64
2022/11/08 05:23:23;;;;;;;12.73;7.47;;;6.20;1.00;;;;;;4953146;29;20169;-64
2022/11/08 05:25:49;;;;;;;8.23;7.23;;;6.00;1.00;;;;;;4953009;28;20421;-64
2022/11/08 05:28:15;;;;;;;15.23;7.80;;;6.00;1.00;;;;;;4950198;28;20529;-64
2022/11/08 05:30:41;;;;;;;9.27;7.70;;;6.20;1.00;;;;;;4974349;28;20531;-64
2022/11/08 05:33:07;;;;;;;8.67;6.57;;;6.10;1.00;;;;;;5003347;28;20562;-64
2022/11/08 05:35:34;;;;;;;9.23;6.33;;;6.10;1.00;;;;;;4993230;28;20258;-64
2022/11/08 05:37:59;;;;;;;10.23;5.93;;;5.90;1.00;;;;;;4991333;28;20769;-64
2022/11/08 05:40:25;;;;;;;25.33;6.80;;;5.90;1.00;;;;;;4988411;28;20432;-64
2022/11/08 05:42:54;;;;;;;30.73;8.97;;;6.00;99.90;;;;;;4991055;28;20641;-64
2022/11/08 05:45:20;;;;;;;69.80;12.77;;;6.20;1.00;;;;;;4991381;28;20169;-64
2022/11/08 05:47:46;;;;;;;19.97;6.30;;;6.40;99.90;;;;;;4990006;28;20412;-64
2022/11/08 05:50:12;;;;;;;39.17;9.50;;;6.30;2.80;;;;;;4990670;28;20216;-64
2022/11/08 05:52:38;;;;;;;49.27;11.77;;;6.30;1.00;;;;;;4988397;28;20432;-65
2022/11/08 05:55:05;;;;;;;16.43;6.40;;;6.40;1.00;;;;;;4983864;28;20432;-64
2022/11/08 05:57:30;;;;;;;9.63;5.43;;;6.50;1.00;;;;;;4974078;28;20262;-65
2022/11/08 05:59:56;;;;;;;22.70;8.67;;;6.40;1.00;;;;;;4977338;28;21060;-64
2022/11/08 06:02:21;;;;;;;25.43;7.50;;;6.20;1.00;;;;;;4981388;28;20496;-64
2022/11/08 06:04:48;;;;;;;7.73;6.30;;;6.40;1.00;;;;;;4981609;28;20222;-67
2022/11/08 06:07:14;;;;;;;24.30;7.90;;;6.20;1.00;;;;;;4979760;28;20240;-68
2022/11/08 06:09:40;;;;;;;40.20;9.30;;;6.20;1.00;;;;;;4975240;28;20849;-68
2022/11/08 06:12:06;;;;;;;25.63;8.83;;;6.20;1.00;;;;;;4978340;28;20252;-67
2022/11/08 06:14:32;;;;;;;14.80;7.87;;;6.20;38.60;;;;;;4981509;28;20177;-68
2022/11/08 06:16:58;;;;;;;25.80;9.30;;;6.20;1.00;;;;;;4984522;28;20537;-68
2022/11/08 06:19:24;;;;;;;51.50;11.37;;;6.30;1.00;;;;;;4975720;28;20673;-68
2022/11/08 06:21:49;;;;;;;29.27;10.13;;;6.30;40.20;;;;;;4978096;28;20200;-68
2022/11/08 06:24:18;;;;;;;87.27;16.83;;;6.30;99.90;;;;;;4982365;28;20172;-67
2022/11/08 06:26:43;;;;;;;38.00;10.43;;;6.40;99.90;;;;;;4977306;28;20260;-67
2022/11/08 06:29:09;;;;;;;24.50;10.80;;;6.30;99.90;;;;;;4974688;28;21017;-67
2022/11/08 06:31:35;;;;;;;99.30;16.23;;;6.40;99.90;;;;;;4979391;28;20535;-68
2022/11/08 06:34:01;;;;;;;33.27;12.93;;;6.50;99.90;;;;;;4986523;28;20198;-68
2022/11/08 06:36:26;;;;;;;29.03;10.57;;;6.50;99.90;;;;;;4997398;28;20192;-67
2022/11/08 06:38:54;;;;;;;33.90;12.03;;;6.40;1.00;;;;;;5005356;28;20180;-68
2022/11/08 06:41:20;;;;;;;45.70;13.00;;;6.40;99.90;;;;;;4989382;28;20193;-68
2022/11/08 06:43:47;;;;;;;27.40;12.33;;;6.40;1.00;;;;;;4977024;28;20421;-69
2022/11/08 06:46:13;;;;;;;25.03;10.90;;;6.50;99.90;;;;;;4976295;28;20510;-68
2022/11/08 06:48:38;;;;;;;34.83;11.43;;;6.50;1.00;;;;;;4971547;28;20439;-68
2022/11/08 06:51:04;;;;;;;17.47;10.33;;;6.50;99.90;;;;;;4984462;28;20299;-68
2022/11/08 06:53:30;;;;;;;20.90;9.80;;;6.50;99.90;;;;;;4977779;28;20212;-68
2022/11/08 06:56:01;;;;;;;19.57;10.30;;;6.40;99.90;;;;;;4978045;28;20227;-68
2022/11/08 06:58:27;;;;;;;25.00;10.90;;;6.30;1.00;;;;;;4980171;28;20428;-70
2022/11/08 07:00:53;;;;;;;21.03;9.83;;;6.30;1.00;;;;;;4976732;28;20451;-67
2022/11/08 07:03:18;;;;;;;16.47;8.93;;;6.40;99.90;;;;;;4976317;28;20965;-69
2022/11/08 07:05:44;;;;;;;55.83;12.43;;;6.30;1.00;;;;;;4982188;28;20177;-68
2022/11/08 07:08:10;;;;;;;48.30;13.33;;;6.40;99.90;;;;;;4979117;28;20438;-69
2022/11/08 07:10:36;;;;;;;67.80;14.63;;;6.50;99.90;;;;;;4986478;28;20195;-68
2022/11/08 07:13:05;;;;;;;50.33;11.40;;;6.70;1.00;;;;;;4970262;28;20217;-68
2022/11/08 07:15:32;;;;;;;24.10;10.23;;;6.80;1.00;;;;;;4967782;28;20579;-69
2022/11/08 07:18:12;;;;;;;58.93;12.90;;;6.90;23.90;;;;;;4969668;28;20859;-69
2022/11/08 07:20:38;;;;;;;20.83;9.47;;;6.70;1.00;;;;;;4970307;28;20438;-68
2022/11/08 07:23:04;;;;;;;22.27;9.23;;;6.90;1.00;;;;;;4972386;28;20507;-69
2022/11/08 07:25:31;;;;;;;16.53;8.33;;;6.90;99.90;;;;;;4972289;28;20763;-69
2022/11/08 07:27:58;;;;;;;37.53;10.27;;;6.70;99.90;;;;;;4976785;28;20978;-67
2022/11/08 07:30:25;;;;;;;13.37;7.60;;;6.70;1.00;;;;;;4981729;28;20941;-69
2022/11/08 07:32:50;;;;;;;40.27;11.20;;;6.70;99.90;;;;;;4993041;28;20805;-68
2022/11/08 07:35:16;;;;;;;76.33;12.77;;;6.60;1.00;;;;;;4982273;28;20523;-69
2022/11/08 07:37:42;;;;;;;94.23;19.10;;;6.70;1.00;;;;;;4974171;28;20540;-68
2022/11/08 07:40:09;;;;;;;15.30;7.63;;;6.80;1.00;;;;;;4974836;28;20449;-70
2022/11/08 07:42:38;;;;;;;28.23;9.63;;;7.40;1.00;;;;;;4975460;28;20216;-70
2022/11/08 07:45:05;;;;;;;24.50;8.67;;;9.80;1.00;;;;;;4974472;28;20484;-70
2022/11/08 07:47:31;;;;;;;75.33;16.37;;;10.70;1.00;;;;;;4980249;28;20506;-69
2022/11/08 07:49:56;;;;;;;32.30;10.57;;;10.10;99.90;;;;;;4991914;28;20817;-69
2022/11/08 07:52:22;;;;;;;22.47;8.40;;;8.90;99.90;;;;;;4990372;28;20575;-70
2022/11/08 07:54:48;;;;;;;15.50;9.07;;;8.20;1.00;;;;;;4973589;28;20704;-69
2022/11/08 07:57:13;;;;;;;28.40;10.03;;;7.70;1.00;;;;;;4973974;28;20303;-69
2022/11/08 07:59:39;;;;;;;21.33;9.03;;;7.60;99.90;;;;;;4973363;28;20228;-69
2022/11/08 08:02:05;;;;;;;21.07;9.80;;;7.60;1.00;;;;;;4972570;28;20256;-69
2022/11/08 08:04:31;;;;;;;26.40;9.30;;;7.70;1.00;;;;;;4975146;28;20265;-69
2022/11/08 08:06:57;;;;;;;14.93;8.67;;;7.70;1.00;;;;;;4992752;28;20841;-69
2022/11/08 08:09:23;;;;;;;18.73;9.00;;;7.60;1.00;;;;;;4992732;28;20838;-68
2022/11/08 08:11:49;;;;;;;12.53;8.87;;;7.70;99.90;;;;;;4992467;28;20443;-69
2022/11/08 08:14:15;;;;;;;11.17;9.20;;;7.70;1.00;;;;;;4992773;28;20479;-70
2022/11/08 08:16:41;;;;;;;13.17;9.40;;;7.60;99.90;;;;;;4992539;28;20361;-70
2022/11/08 08:19:06;;;;;;;12.40;8.73;;;7.50;1.00;;;;;;4992525;28;20578;-70
2022/11/08 08:21:32;;;;;;;14.63;8.33;;;7.20;1.00;;;;;;4990855;28;20252;-70
2022/11/08 08:23:58;;;;;;;12.10;8.60;;;7.30;99.90;;;;;;4992313;28;20480;-69
2022/11/08 08:26:24;;;;;;;19.77;11.77;;;7.20;99.90;;;;;;4992016;28;20195;-69
2022/11/08 08:28:49;;;;;;;19.30;9.97;;;6.80;1.00;;;;;;4991428;28;20363;-69
2022/11/08 08:31:15;;;;;;;22.77;9.90;;;7.00;1.00;;;;;;4990814;28;20536;-71
2022/11/08 08:33:41;;;;;;;20.90;11.80;;;7.10;1.00;;;;;;4992145;28;20223;-71
2022/11/08 08:36:07;;;;;;;21.90;9.37;;;7.10;25.60;;;;;;4991671;28;20196;-68
2022/11/08 08:38:33;;;;;;;32.03;9.50;;;7.20;1.00;;;;;;4992162;28;20185;-68
2022/11/08 08:41:00;;;;;;;9.10;7.93;;;8.80;1.00;;;;;;4989666;28;20224;-67
2022/11/08 08:43:27;;;;;;;19.13;9.37;;;9.40;1.00;;;;;;4972544;28;20417;-70
2022/11/08 08:45:53;;;;;;;22.17;9.20;;;8.40;99.90;;;;;;4981419;28;20486;-68
2022/11/08 08:48:19;;;;;;;13.50;9.00;;;7.30;74.60;;;;;;4981894;28;20776;-68
2022/11/08 08:50:46;;;;;;;29.37;10.70;;;7.00;1.00;;;;;;4983156;28;20571;-70
2022/11/08 08:53:12;;;;;;;42.03;14.73;;;6.80;99.90;;;;;;4980721;28;20925;-70
2022/11/08 08:55:40;;;;;;;27.70;11.23;;;6.70;1.00;;;;;;4984369;28;20456;-69
2022/11/08 08:58:06;;;;;;;30.43;12.47;;;6.70;1.00;;;;;;4985324;28;20492;-69
2022/11/08 09:00:32;;;;;;;59.30;13.30;;;6.90;99.90;;;;;;4972460;28;20480;-69
2022/11/08 09:03:06;;;;;;;46.27;11.50;;;7.10;99.90;;;;;;4972660;28;20257;-67
2022/11/08 09:05:32;;;;;;;89.90;15.37;;;6.90;1.00;;;;;;4972129;28;20200;-69
2022/11/08 09:07:58;;;;;;;41.77;12.70;;;6.60;99.90;;;;;;4972426;28;21233;-68
2022/11/08 09:10:24;;;;;;;59.77;14.80;;;6.50;1.00;;;;;;4979807;28;20438;-69
2022/11/08 09:12:50;;;;;;;38.27;15.00;;;6.80;1.00;;;;;;4991804;28;20806;-69
2022/11/08 09:15:16;;;;;;;28.57;18.40;;;7.00;99.90;;;;;;4991428;28;20577;-69
2022/11/08 09:17:42;;;;;;;27.77;16.07;;;7.10;99.90;;;;;;4991666;28;20404;-68
2022/11/08 09:20:09;;;;;;;31.40;15.17;;;7.40;1.00;;;;;;4990846;28;20519;-68
2022/11/08 09:22:35;;;;;;;17.90;12.43;;;7.50;99.90;;;;;;4990701;28;20439;-68
2022/11/08 09:25:02;;;;;;;22.70;13.50;;;7.50;1.00;;;;;;4991094;28;20423;-69
2022/11/08 09:27:30;;;;;;;20.93;10.70;;;7.60;99.90;;;;;;4986954;28;20483;-68
2022/11/08 09:29:57;;;;;;;21.83;12.03;;;7.60;99.90;;;;;;4983996;28;20486;-67
2022/11/08 09:32:27;;;;;;;20.03;11.03;;;7.70;99.90;;;;;;4972394;28;20449;-68
2022/11/08 09:34:54;;;;;;;23.40;12.43;;;7.80;99.90;;;;;;4983175;28;20774;-69
2022/11/08 09:37:20;;;;;;;20.00;12.47;;;7.90;1.00;;;;;;4989946;28;20498;-68
2022/11/08 09:39:46;;;;;;;12.37;8.30;;;7.90;1.00;;;;;;4979989;28;20452;-68
2022/11/08 09:42:21;;;;;;;9.20;6.83;;;8.00;1.00;;;;;;4985212;28;20801;-68
2022/11/08 09:44:47;;;;;;;11.10;7.37;;;8.10;14.80;;;;;;4974889;28;21012;-69
2022/11/08 09:47:25;;;;;;;13.13;7.00;;;8.20;1.00;;;;;;4986436;28;20467;-69
2022/11/08 09:50:13;;;;;;;10.60;6.73;;;8.20;1.00;;;;;;4985956;28;20224;-69
2022/11/08 09:52:42;;;;;;;18.87;6.70;;;8.30;1.00;;;;;;4971616;28;20433;-70
2022/11/08 09:55:16;;;;;;;20.57;8.80;;;8.50;99.90;;;;;;4984313;28;20929;-70
2022/11/08 09:58:17;;;;;;;26.53;9.83;;;8.70;1.00;;;;;;4978878;28;20428;-69
2022/11/08 10:00:44;;;;;;;20.57;8.00;;;8.90;1.00;;;;;;4982832;28;20636;-69
2022/11/08 10:03:15;;;;;;;60.97;12.67;;;9.00;99.90;;;;;;4987466;28;20451;-68
2022/11/08 10:06:02;;;;;;;36.60;10.83;;;9.10;1.00;;;;;;4980735;28;20886;-69
2022/11/08 10:08:37;;;;;;;26.30;11.20;;;9.10;1.00;;;;;;4977576;28;20491;-69
2022/11/08 10:11:18;;;;;;;30.57;11.50;;;9.00;1.00;;;;;;4984825;28;20456;-70
2022/11/08 10:13:51;;;;;;;83.57;16.10;;;9.00;1.00;;;;;;4980264;28;20428;-69
2022/11/08 10:16:46;;;;;;;114.70;17.17;;;9.10;26.70;;;;;;4985134;28;20470;-68
2022/11/08 10:19:37;;;;;;;21.37;11.10;;;9.20;99.90;;;;;;4985583;28;20428;-68
2022/11/08 10:22:37;;;;;;;46.17;11.17;;;9.30;94.40;;;;;;4983867;28;20432;-70
2022/11/08 10:25:30;;;;;;;50.20;13.13;;;9.40;22.40;;;;;;4970435;28;20567;-69
2022/11/08 10:27:58;;;;;;;19.80;10.37;;;9.40;1.00;;;;;;4976462;28;20436;-69
2022/11/08 10:30:39;;;;;;;30.73;11.53;;;9.00;99.90;;;;;;4977327;28;20457;-69
2022/11/08 10:33:34;;;;;;;19.67;10.20;;;8.70;1.00;;;;;;4987173;28;20543;-69
2022/11/08 10:36:16;;;;;;;22.60;10.37;;;8.70;99.90;;;;;;4976144;28;20469;-69
2022/11/08 10:39:16;;;;;;;37.47;12.93;;;8.80;1.00;;;;;;4976508;28;20506;-68
2022/11/08 10:42:09;;;;;;;15.23;10.10;;;9.00;1.00;;;;;;4982377;28;20428;-69
2022/11/08 10:44:35;;;;;;;22.93;11.23;;;9.10;1.00;;;;;;4977469;28;20436;-70
2022/11/08 10:47:05;;;;;;;114.43;21.23;;;9.20;99.90;;;;;;4975770;28;20524;-70
2022/11/08 10:49:38;;;;;;;109.60;23.53;;;9.30;1.00;;;;;;4978791;28;20450;-70
2022/11/08 10:52:31;;;;;;;36.07;13.13;;;9.50;99.90;;;;;;4973066;28;20471;-70
2022/11/08 10:54:59;;;;;;;12.70;9.70;;;9.60;1.00;;;;;;4973376;28;20730;-69
2022/11/08 10:57:30;;;;;;;61.97;14.50;;;9.60;1.00;;;;;;4985462;28;20964;-70
2022/11/08 10:59:56;;;;;;;26.03;12.00;;;9.90;1.00;;;;;;4970856;28;20528;-71
2022/11/08 11:02:25;;;;;;;59.23;14.23;;;10.30;99.90;;;;;;4978101;28;20947;-71
2022/11/08 11:04:51;;;;;;;37.77;12.13;;;10.70;1.00;;;;;;4977562;28;20839;-68
2022/11/08 11:07:25;;;;;;;36.57;14.60;;;10.80;99.90;;;;;;4980096;28;20538;-70
2022/11/08 11:09:51;;;;;;;42.23;15.60;;;10.80;1.00;;;;;;4976230;28;20449;-70
2022/11/08 11:12:16;;;;;;;56.97;14.17;;;11.20;1.00;;;;;;4985198;28;20447;-70
2022/11/08 11:14:42;;;;;;;76.57;17.27;;;11.70;1.00;;;;;;4978468;28;20264;-70
2022/11/08 11:17:18;;;;;;;33.97;13.37;;;12.10;99.90;;;;;;4970957;28;20656;-70
2022/11/08 11:19:53;;;;;;;23.00;11.40;;;12.20;99.90;;;;;;4970125;28;20696;-70
2022/11/08 11:22:33;;;;;;;16.57;9.50;;;12.30;52.60;;;;;;4970212;28;20421;-70
2022/11/08 11:25:12;;;;;;;16.30;9.27;;;12.30;32.60;;;;;;4974472;28;20626;-68
2022/11/08 11:27:40;;;;;;;22.93;8.53;;;12.70;1.00;;;;;;4984982;28;20412;-70
2022/11/08 11:30:32;;;;;;;58.70;11.57;;;12.80;1.00;;;;;;4981054;28;20913;-68
2022/11/08 11:33:25;;;;;;;11.27;6.80;;;12.60;1.00;;;;;;4977880;28;20912;-71
2022/11/08 11:35:54;;;;;;;11.63;8.27;;;12.70;99.90;;;;;;4983641;28;20456;-71
2022/11/08 11:38:54;;;;;;;75.47;17.23;;;12.80;69.80;;;;;;4971853;28;20413;-69
2022/11/08 11:41:41;;;;;;;26.03;9.60;;;12.70;16.60;;;;;;4944054;28;20527;-70
2022/11/08 11:44:10;;;;;;;15.70;9.60;;;12.60;1.00;;;;;;4974183;28;20448;-71
2022/11/08 11:46:50;;;;;;;58.87;13.47;;;12.70;1.00;;;;;;4970381;28;20421;-69
2022/11/08 11:49:19;;;;;;;289.97;30.70;;;12.50;1.00;;;;;;4970244;28;20801;-69
2022/11/08 11:51:45;;;;;;;140.13;18.73;;;12.40;1.00;;;;;;4968899;28;20409;-69
2022/11/08 11:54:14;;;;;;;57.90;11.57;;;12.30;16.40;;;;;;4981952;28;20416;-70
2022/11/08 11:56:53;;;;;;;51.50;10.10;;;12.40;49.40;;;;;;4987978;28;20274;-70
2022/11/08 11:59:43;;;;;;;331.47;34.20;;;12.70;59.00;;;;;;4969700;28;20405;-68
2022/11/08 12:02:50;;;;;;;118.50;16.77;;;13.00;1.00;;;;;;4968779;28;20729;-69
2022/11/08 12:06:03;;;;;;;174.17;23.43;;;12.80;1.00;;;;;;4975254;28;20483;-69
2022/11/08 12:08:44;;;;;;;34.43;8.83;;;12.80;1.00;;;;;;4923416;29;20480;-69
2022/11/08 12:11:12;;;;;;;9.60;6.67;;;13.10;1.00;;;;;;4931615;29;20434;-69
2022/11/08 12:14:22;;;;;;;13.03;6.47;;;13.50;1.00;;;;;;4932412;29;20585;-68
2022/11/08 12:17:25;;;;;;;20.20;7.50;;;13.70;1.00;;;;;;4859659;29;20508;-69
2022/11/08 12:20:35;;;;;;;15.17;6.70;;;14.00;1.00;;;;;;4848039;29;20490;-69
2022/11/08 12:23:37;;;;;;;83.47;12.80;;;14.10;1.00;;;;;;4813306;29;20767;-69
2022/11/08 12:26:05;;;;;;;90.90;16.07;;;13.80;1.00;;;;;;4857197;29;20414;-69
2022/11/08 12:28:41;;;;;;;39.47;8.07;;;13.60;1.00;;;;;;4857161;29;20415;-69
2022/11/08 12:31:32;;;;;;;10.13;6.47;;;13.60;1.00;;;;;;4855906;29;20430;-70
2022/11/08 12:34:21;;;;;;;13.80;6.80;;;13.60;1.00;;;;;;4856778;29;20490;-70
2022/11/08 12:36:59;;;;;;;8.00;5.37;;;13.70;1.00;;;;;;4867979;29;20497;-68
2022/11/08 12:39:44;;;;;;;18.83;6.90;;;13.50;1.00;;;;;;4911003;29;20434;-68
2022/11/08 12:42:28;;;;;;;40.80;9.77;;;13.40;1.00;;;;;;4931857;29;20526;-69
2022/11/08 12:45:14;;;;;;;59.00;10.70;;;13.30;1.00;;;;;;4931968;29;20486;-70
2022/11/08 12:47:43;;;;;;;45.13;9.10;;;13.30;1.00;;;;;;4953833;28;20412;-70
2022/11/08 12:50:40;;;;;;;51.40;12.77;;;13.30;1.00;;;;;;4980673;28;20487;-69
2022/11/08 12:53:36;;;;;;;34.53;8.10;;;13.30;1.00;;;;;;4988780;28;20953;-69
2022/11/08 12:56:04;;;;;;;9.67;7.07;;;13.30;1.00;;;;;;4978020;28;20452;-69
2022/11/08 12:58:38;;;;;;;13.50;6.17;;;13.40;1.00;;;;;;4992619;28;20494;-69
2022/11/08 13:01:30;;;;;;;13.03;6.53;;;13.40;1.00;;;;;;4984292;28;21144;-69
2022/11/08 13:04:40;;;;;;;10.50;5.00;;;13.40;1.00;;;;;;4976396;28;20425;-69
2022/11/08 13:07:18;;;;;;;20.43;6.20;;;13.30;1.00;;;;;;4963644;28;20433;-69
2022/11/08 13:09:47;;;;;;;23.07;6.77;;;13.30;1.00;;;;;;4972546;28;20805;-69
2022/11/08 13:12:28;;;;;;;13.33;6.57;;;13.30;21.10;;;;;;4974993;28;20403;-69
2022/11/08 13:14:54;;;;;;;45.40;9.53;;;13.30;55.30;;;;;;4991685;28;20718;-70
2022/11/08 13:17:25;;;;;;;16.00;6.07;;;13.30;99.90;;;;;;4991706;28;20452;-69
2022/11/08 13:19:59;;;;;;;11.50;5.83;;;13.30;99.90;;;;;;4991709;28;20935;-70
2022/11/08 13:22:28;;;;;;;37.83;7.90;;;13.30;99.90;;;;;;4991511;28;20776;-68
2022/11/08 13:24:55;;;;;;;11.70;5.43;;;13.30;96.20;;;;;;4991764;28;20438;-68